Time;durP1;ratioP1;P1;durP2;ratioP2;P2;SDS_P1;SDS_P2;PMS_P1;PMS_P2;Temp;Humidity;BMP_temperature;BMP_pressure;BME280_temperature;BME280_humidity;BME280_pressure;Samples;Min_cycle;Max_cycle;Signal;HPM_P1;HPM_P2
2021/04/25 00:02:09;;;;;;;11.02;9.93;;;17.30;99.90;;;;;;5075613;28;20024;-60
2021/04/25 00:04:37;;;;;;;10.90;10.00;;;17.40;99.90;;;;;;5075273;28;20574;-61
2021/04/25 00:07:08;;;;;;;10.50;9.70;;;17.40;99.90;;;;;;5075396;28;20048;-60
2021/04/25 00:09:35;;;;;;;9.65;8.85;;;17.40;99.90;;;;;;5075200;28;20024;-61
2021/04/25 00:12:03;;;;;;;10.05;9.05;;;17.50;99.90;;;;;;5075104;28;20032;-61
2021/04/25 00:14:30;;;;;;;9.60;8.77;;;17.60;99.90;;;;;;5073629;28;20021;-60
2021/04/25 00:16:59;;;;;;;9.38;8.48;;;17.50;99.90;;;;;;5075031;28;20032;-61
2021/04/25 00:19:27;;;;;;;9.15;8.45;;;17.60;99.90;;;;;;5074975;28;20557;-62
2021/04/25 00:21:54;;;;;;;7.88;7.20;;;17.80;99.90;;;;;;5074822;28;20104;-61
2021/04/25 00:24:21;;;;;;;9.40;8.43;;;18.20;99.90;;;;;;5075095;28;20491;-62
2021/04/25 00:26:49;;;;;;;9.38;8.50;;;18.30;99.90;;;;;;5074962;28;20550;-63
2021/04/25 00:29:16;;;;;;;9.65;8.93;;;18.40;99.90;;;;;;5074635;28;20032;-62
2021/04/25 00:31:44;;;;;;;9.68;8.88;;;18.70;99.90;;;;;;5074814;28;20024;-62
2021/04/25 00:34:11;;;;;;;8.63;7.93;;;18.60;99.90;;;;;;5074948;28;20020;-62
2021/04/25 00:36:38;;;;;;;8.10;7.50;;;18.60;99.90;;;;;;5074658;28;20028;-62
2021/04/25 00:39:06;;;;;;;8.90;8.10;;;18.60;99.50;;;;;;5074684;28;20123;-62
2021/04/25 00:41:34;;;;;;;8.13;7.40;;;18.60;99.90;;;;;;5074625;28;20496;-62
2021/04/25 00:44:02;;;;;;;8.13;7.32;;;18.70;99.90;;;;;;5074698;28;20025;-61
2021/04/25 00:46:29;;;;;;;7.68;7.00;;;19.10;99.90;;;;;;5074588;28;20496;-61
2021/04/25 00:48:57;;;;;;;7.60;7.00;;;19.10;99.40;;;;;;5074650;28;20052;-61
2021/04/25 00:51:25;;;;;;;7.80;7.20;;;18.90;99.50;;;;;;5074538;28;20017;-60
2021/04/25 00:53:52;;;;;;;7.72;7.00;;;18.80;99.90;;;;;;5074370;28;20031;-59
2021/04/25 00:56:20;;;;;;;8.57;7.82;;;19.00;99.90;;;;;;5074261;28;20048;-60
2021/04/25 00:58:48;;;;;;;8.35;7.65;;;19.10;99.90;;;;;;5074291;28;20044;-61
2021/04/25 01:01:17;;;;;;;8.02;7.40;;;19.10;99.90;;;;;;5074433;28;20389;-61
2021/04/25 01:03:44;;;;;;;8.13;7.30;;;19.10;99.70;;;;;;5074101;28;20024;-60
2021/04/25 01:06:12;;;;;;;8.50;7.70;;;19.20;99.80;;;;;;5074032;28;20073;-62
2021/04/25 01:08:39;;;;;;;8.27;7.40;;;19.20;99.90;;;;;;5073953;28;20374;-61
2021/04/25 01:11:07;;;;;;;8.68;8.05;;;19.30;99.90;;;;;;5074022;28;20026;-62
2021/04/25 01:13:34;;;;;;;8.23;7.63;;;19.60;99.90;;;;;;5072433;28;20177;-61
2021/04/25 01:16:01;;;;;;;8.93;8.23;;;19.80;99.90;;;;;;5073807;28;20032;-62
2021/04/25 01:18:29;;;;;;;8.82;8.02;;;19.90;99.90;;;;;;5072501;28;20048;-61
2021/04/25 01:21:06;;;;;;;8.55;7.82;;;20.10;99.50;;;;;;5073909;28;20037;-63
2021/04/25 01:23:33;;;;;;;8.02;7.40;;;20.00;99.60;;;;;;5073918;28;20040;-63
2021/04/25 01:26:01;;;;;;;8.02;7.28;;;20.20;99.90;;;;;;5073089;28;20032;-62
2021/04/25 01:28:29;;;;;;;7.32;6.72;;;20.10;99.40;;;;;;5073746;28;20036;-63
2021/04/25 01:30:56;;;;;;;7.40;6.70;;;20.20;99.70;;;;;;5073565;28;20024;-63
2021/04/25 01:33:28;;;;;;;8.93;6.55;;;20.20;99.90;;;;;;5073619;28;20052;-62
2021/04/25 01:35:56;;;;;;;7.10;6.50;;;20.30;99.90;;;;;;5073609;28;20385;-62
2021/04/25 01:38:23;;;;;;;8.02;6.85;;;20.20;99.80;;;;;;5073440;28;20562;-62
2021/04/25 01:40:50;;;;;;;8.63;7.60;;;20.30;99.90;;;;;;5073205;28;20051;-62
2021/04/25 01:43:18;;;;;;;9.20;7.38;;;20.40;99.70;;;;;;5073458;28;20074;-62
2021/04/25 01:45:45;;;;;;;7.63;7.03;;;20.30;98.90;;;;;;5073386;28;20439;-63
2021/04/25 01:48:13;;;;;;;12.23;6.72;;;20.60;99.90;;;;;;5073281;28;20024;-62
2021/04/25 01:50:40;;;;;;;7.50;6.82;;;20.70;98.90;;;;;;5073311;28;20078;-62
2021/04/25 01:53:10;;;;;;;6.93;6.28;;;20.70;98.90;;;;;;5073303;28;20047;-63
2021/04/25 01:55:39;;;;;;;6.78;6.25;;;20.40;98.90;;;;;;5073175;28;20120;-63
2021/04/25 01:58:08;;;;;;;6.88;6.38;;;20.40;98.90;;;;;;5073086;28;20052;-63
2021/04/25 02:00:39;;;;;;;6.60;6.00;;;20.70;99.40;;;;;;5073278;28;20016;-64
2021/04/25 02:03:08;;;;;;;7.40;5.97;;;21.10;97.90;;;;;;5073167;28;20024;-63
2021/04/25 02:05:36;;;;;;;7.70;6.47;;;21.10;97.80;;;;;;5073186;28;20047;-62
2021/04/25 02:08:05;;;;;;;7.10;6.50;;;21.10;97.30;;;;;;5073024;28;20024;-62
2021/04/25 02:10:33;;;;;;;6.90;6.20;;;21.30;97.80;;;;;;5073208;28;20488;-62
2021/04/25 02:13:00;;;;;;;6.97;6.55;;;21.70;98.40;;;;;;5073075;28;20425;-63
2021/04/25 02:15:28;;;;;;;6.85;6.35;;;21.90;98.20;;;;;;5073077;28;20053;-63
2021/04/25 02:17:56;;;;;;;6.63;6.05;;;21.90;97.60;;;;;;5073223;28;20520;-63
2021/04/25 02:20:24;;;;;;;7.75;5.90;;;22.00;98.30;;;;;;5072944;28;20107;-63
2021/04/25 02:22:53;;;;;;;7.82;6.20;;;22.20;98.20;;;;;;5071519;28;20029;-63
2021/04/25 02:25:22;;;;;;;6.80;6.15;;;22.10;96.80;;;;;;5073081;28;20583;-63
2021/04/25 02:27:50;;;;;;;6.38;5.97;;;21.60;97.60;;;;;;5071660;28;20078;-62
2021/04/25 02:30:19;;;;;;;9.45;6.30;;;21.30;98.60;;;;;;5073006;28;20027;-63
2021/04/25 02:32:47;;;;;;;6.22;5.72;;;21.10;96.60;;;;;;5072871;28;20480;-62
2021/04/25 02:35:16;;;;;;;6.32;5.75;;;20.70;96.50;;;;;;5072652;28;20025;-63
2021/04/25 02:37:44;;;;;;;5.80;5.30;;;20.70;96.70;;;;;;5074792;28;20028;-62
2021/04/25 02:40:14;;;;;;;7.15;5.70;;;20.50;98.00;;;;;;5076969;28;20127;-62
2021/04/25 02:42:42;;;;;;;;;;;20.50;97.90;;;;;;5077341;28;20150;-62
2021/04/25 02:45:17;;;;;;;6.20;5.70;;;20.70;98.10;;;;;;5076712;28;19904;-62
2021/04/25 02:47:50;;;;;;;5.80;5.32;;;21.10;97.00;;;;;;5076818;28;20484;-62
2021/04/25 02:50:19;;;;;;;6.90;4.93;;;21.30;97.40;;;;;;5076765;28;20051;-63
2021/04/25 02:52:46;;;;;;;5.63;5.07;;;21.30;97.10;;;;;;5076767;28;20108;-62
2021/04/25 02:55:14;;;;;;;5.10;4.70;;;21.10;98.90;;;;;;5076479;28;20029;-62
2021/04/25 02:57:42;;;;;;;6.15;5.47;;;21.40;99.90;;;;;;5076617;28;20020;-62
2021/04/25 03:00:13;;;;;;;5.47;4.97;;;21.30;99.90;;;;;;5076490;28;20020;-62
2021/04/25 03:02:40;;;;;;;6.65;5.40;;;20.90;99.90;;;;;;5076668;28;20017;-62
2021/04/25 03:05:09;;;;;;;6.50;5.88;;;20.50;99.90;;;;;;5076618;28;20021;-62
2021/04/25 03:07:36;;;;;;;8.32;7.80;;;20.30;99.90;;;;;;5076496;28;20103;-62
2021/04/25 03:10:06;;;;;;;7.65;7.15;;;20.10;99.90;;;;;;5076423;28;20028;-62
2021/04/25 03:12:34;;;;;;;8.15;7.50;;;20.40;99.90;;;;;;5076379;28;20028;-63
2021/04/25 03:15:01;;;;;;;8.20;7.50;;;20.60;99.90;;;;;;5076247;28;20020;-62
2021/04/25 03:17:28;;;;;;;6.78;5.55;;;20.60;99.90;;;;;;5076272;28;20043;-63
2021/04/25 03:19:56;;;;;;;9.07;5.80;;;20.50;99.90;;;;;;5076189;28;20043;-63
2021/04/25 03:22:23;;;;;;;6.10;5.60;;;20.70;99.90;;;;;;5076129;28;20052;-61
2021/04/25 03:24:50;;;;;;;5.80;5.20;;;20.60;99.90;;;;;;5076152;28;20021;-65
2021/04/25 03:27:18;;;;;;;8.00;7.40;;;20.70;99.90;;;;;;5076086;28;20024;-64
2021/04/25 03:29:45;;;;;;;6.20;5.10;;;20.50;99.90;;;;;;5076068;28;20020;-65
2021/04/25 03:32:12;;;;;;;4.88;4.57;;;20.50;99.90;;;;;;5076042;28;20078;-65
2021/04/25 03:34:40;;;;;;;5.25;4.80;;;20.40;99.90;;;;;;5075781;28;20021;-65
2021/04/25 03:37:07;;;;;;;5.70;5.20;;;20.90;99.90;;;;;;5075907;28;20024;-65
2021/04/25 03:39:35;;;;;;;5.68;5.07;;;21.60;99.90;;;;;;5075644;28;20041;-65
2021/04/25 03:42:03;;;;;;;5.90;5.30;;;22.00;99.90;;;;;;5074458;28;20024;-65
2021/04/25 03:44:30;;;;;;;5.78;5.18;;;22.20;99.90;;;;;;5075612;28;20048;-65
2021/04/25 03:46:58;;;;;;;5.45;4.97;;;22.40;99.90;;;;;;5075652;28;20111;-66
2021/04/25 03:49:25;;;;;;;7.82;7.28;;;22.40;99.90;;;;;;5075119;28;20074;-66
2021/04/25 03:51:55;;;;;;;8.45;7.68;;;21.80;99.90;;;;;;5075704;28;20032;-65
2021/04/25 03:54:23;;;;;;;8.60;7.90;;;21.70;99.90;;;;;;5075494;28;20021;-66
2021/04/25 03:56:52;;;;;;;6.03;5.50;;;21.40;99.90;;;;;;5075394;28;20028;-65
2021/04/25 03:59:19;;;;;;;6.00;5.40;;;21.20;99.90;;;;;;5075443;28;20027;-66
2021/04/25 04:01:47;;;;;;;5.60;5.20;;;21.00;99.90;;;;;;5074210;28;20389;-66
2021/04/25 04:04:14;;;;;;;5.88;5.25;;;20.70;99.90;;;;;;5075404;28;20495;-66
2021/04/25 04:06:41;;;;;;;7.60;6.93;;;20.60;99.90;;;;;;5075271;28;20025;-66
2021/04/25 04:09:09;;;;;;;8.68;7.95;;;20.50;99.90;;;;;;5075287;28;20388;-65
2021/04/25 04:11:36;;;;;;;7.38;6.78;;;20.40;99.90;;;;;;5073999;28;20070;-65
2021/04/25 04:14:04;;;;;;;7.55;6.97;;;20.40;99.90;;;;;;5075105;28;20208;-66
2021/04/25 04:16:31;;;;;;;8.77;6.70;;;20.50;99.90;;;;;;5075018;28;20099;-65
2021/04/25 04:18:58;;;;;;;8.40;7.50;;;20.60;99.90;;;;;;5075065;28;20032;-65
2021/04/25 04:21:25;;;;;;;6.95;6.40;;;20.90;99.90;;;;;;5075163;28;20048;-66
2021/04/25 04:23:53;;;;;;;7.70;7.00;;;20.80;99.90;;;;;;5074915;28;20385;-65
2021/04/25 04:26:21;;;;;;;6.78;6.45;;;21.00;99.90;;;;;;5073559;28;20032;-65
2021/04/25 04:28:49;;;;;;;7.40;6.80;;;20.70;99.90;;;;;;5074708;28;20102;-65
2021/04/25 04:31:16;;;;;;;7.07;6.57;;;20.50;99.90;;;;;;5074609;28;20028;-65
2021/04/25 04:33:43;;;;;;;6.97;6.38;;;20.40;99.90;;;;;;5074503;28;20024;-66
2021/04/25 04:36:11;;;;;;;6.90;6.40;;;20.20;99.90;;;;;;5073432;28;20031;-67
2021/04/25 04:38:38;;;;;;;6.72;6.13;;;20.60;99.90;;;;;;5074546;28;20031;-66
2021/04/25 04:41:05;;;;;;;6.43;5.93;;;20.80;99.90;;;;;;5074787;28;20035;-66
2021/04/25 04:43:33;;;;;;;7.28;6.57;;;20.80;99.90;;;;;;5074568;28;20028;-66
2021/04/25 04:46:00;;;;;;;6.43;6.03;;;20.50;99.90;;;;;;5074459;28;20481;-66
2021/04/25 04:48:27;;;;;;;7.05;6.50;;;20.50;99.90;;;;;;5074468;28;20020;-66
2021/04/25 04:50:55;;;;;;;7.40;6.60;;;20.40;99.90;;;;;;5074371;28;20074;-66
2021/04/25 04:53:22;;;;;;;6.82;6.43;;;20.00;99.90;;;;;;5074323;28;20032;-66
2021/04/25 04:55:50;;;;;;;6.95;6.45;;;20.00;99.90;;;;;;5074327;28;20032;-66
2021/04/25 04:58:17;;;;;;;7.13;6.63;;;19.90;99.90;;;;;;5074229;28;20025;-65
2021/04/25 05:00:44;;;;;;;6.85;6.38;;;20.00;99.90;;;;;;5073462;28;20085;-66
2021/04/25 05:03:11;;;;;;;7.10;6.70;;;20.10;99.90;;;;;;5074073;28;20103;-66
2021/04/25 05:05:39;;;;;;;7.22;6.82;;;20.00;99.90;;;;;;5074250;28;20107;-66
2021/04/25 05:08:06;;;;;;;7.57;6.90;;;20.10;99.90;;;;;;5073992;28;20389;-66
2021/04/25 05:10:34;;;;;;;7.50;6.90;;;20.10;99.90;;;;;;5073920;28;20028;-66
2021/04/25 05:13:01;;;;;;;8.68;7.85;;;20.20;99.90;;;;;;5073989;28;20028;-66
2021/04/25 05:15:28;;;;;;;7.22;6.82;;;20.20;99.90;;;;;;5073926;28;20025;-66
2021/04/25 05:17:56;;;;;;;7.20;6.68;;;20.30;99.90;;;;;;5073942;28;20024;-65
2021/04/25 05:20:23;;;;;;;7.68;7.07;;;20.10;99.90;;;;;;5074118;28;20033;-65
2021/04/25 05:22:50;;;;;;;8.02;7.38;;;20.00;99.90;;;;;;5073770;28;20044;-65
2021/04/25 05:25:18;;;;;;;7.90;7.30;;;20.00;99.90;;;;;;5073784;28;20099;-65
2021/04/25 05:27:45;;;;;;;8.15;7.50;;;20.20;99.90;;;;;;5073698;28;20032;-66
2021/04/25 05:30:13;;;;;;;8.00;7.32;;;19.90;99.90;;;;;;5073637;28;20074;-65
2021/04/25 05:32:40;;;;;;;8.35;7.72;;;19.90;99.90;;;;;;5073614;28;20381;-65
2021/04/25 05:35:08;;;;;;;8.15;7.68;;;19.90;99.90;;;;;;5073514;28;20096;-65
2021/04/25 05:37:37;;;;;;;7.50;6.88;;;19.80;99.90;;;;;;5072303;28;20421;-66
2021/04/25 05:40:06;;;;;;;8.40;7.90;;;19.70;99.90;;;;;;5073197;28;20029;-65
2021/04/25 05:42:34;;;;;;;8.77;8.23;;;19.80;99.90;;;;;;5073319;28;20564;-66
2021/04/25 05:45:01;;;;;;;9.20;8.55;;;19.70;99.90;;;;;;5073374;28;20027;-65
2021/04/25 05:47:29;;;;;;;9.15;8.63;;;19.50;99.90;;;;;;5073371;28;20473;-65
2021/04/25 05:49:56;;;;;;;9.10;8.45;;;19.50;99.90;;;;;;5073373;28;20024;-65
2021/04/25 05:52:26;;;;;;;9.50;8.70;;;19.50;99.90;;;;;;5073308;28;20442;-66
2021/04/25 05:54:54;;;;;;;10.75;9.65;;;19.40;99.90;;;;;;5073489;28;20496;-66
2021/04/25 05:57:21;;;;;;;10.95;10.20;;;19.30;99.90;;;;;;5073187;28;20025;-66
2021/04/25 05:59:48;;;;;;;10.68;10.15;;;19.10;99.90;;;;;;5073161;28;20500;-65
2021/04/25 06:02:16;;;;;;;10.60;9.80;;;19.20;99.90;;;;;;5072996;28;20016;-65
2021/04/25 06:04:43;;;;;;;12.18;11.32;;;19.20;99.90;;;;;;5072992;28;20020;-65
2021/04/25 06:07:11;;;;;;;10.48;9.48;;;19.20;99.90;;;;;;5072917;28;20024;-66
2021/04/25 06:09:38;;;;;;;11.32;10.23;;;19.10;99.90;;;;;;5073032;28;20099;-66
2021/04/25 06:12:06;;;;;;;11.70;10.52;;;18.90;99.90;;;;;;5073065;28;20016;-65
2021/04/25 06:14:33;;;;;;;11.98;10.88;;;19.00;99.90;;;;;;5073031;28;20020;-62
2021/04/25 06:17:00;;;;;;;11.23;10.32;;;18.80;99.90;;;;;;5072834;28;20017;-63
2021/04/25 06:19:28;;;;;;;11.30;10.50;;;18.70;99.90;;;;;;5072878;28;20020;-63
2021/04/25 06:21:55;;;;;;;12.07;11.20;;;18.70;99.90;;;;;;5072898;28;20496;-63
2021/04/25 06:24:22;;;;;;;11.50;10.90;;;18.60;99.90;;;;;;5072857;28;20401;-63
2021/04/25 06:26:50;;;;;;;12.10;11.40;;;18.50;99.90;;;;;;5072834;28;20027;-63
2021/04/25 06:29:17;;;;;;;12.07;11.27;;;18.50;99.90;;;;;;5072796;28;20035;-62
2021/04/25 06:31:44;;;;;;;11.75;11.05;;;18.50;99.90;;;;;;5072777;28;20028;-61
2021/04/25 06:34:12;;;;;;;13.10;12.02;;;18.40;99.90;;;;;;5072873;28;20024;-61
2021/04/25 06:36:42;;;;;;;12.00;11.40;;;18.40;99.90;;;;;;5072791;28;20021;-62
2021/04/25 06:39:10;;;;;;;12.60;11.80;;;18.40;99.90;;;;;;5072558;28;20094;-60
2021/04/25 06:41:38;;;;;;;12.85;11.98;;;18.40;99.90;;;;;;5071513;28;20024;-60
2021/04/25 06:44:06;;;;;;;11.75;11.25;;;18.40;99.90;;;;;;5072570;28;20012;-61
2021/04/25 06:46:34;;;;;;;12.00;11.23;;;18.40;99.90;;;;;;5072778;28;20052;-61
2021/04/25 06:49:01;;;;;;;12.38;11.57;;;18.50;99.90;;;;;;5072755;28;20021;-60
2021/04/25 06:51:29;;;;;;;12.60;11.73;;;18.40;99.90;;;;;;5072581;28;20070;-63
2021/04/25 06:53:57;;;;;;;13.02;11.80;;;18.40;99.90;;;;;;5072521;28;20031;-62
2021/04/25 06:56:24;;;;;;;13.73;12.77;;;18.40;99.90;;;;;;5072371;28;20477;-61
2021/04/25 06:58:51;;;;;;;14.25;13.15;;;18.40;99.90;;;;;;5071249;28;20545;-61
2021/04/25 07:01:19;;;;;;;13.52;12.57;;;18.30;99.90;;;;;;5072565;28;20025;-63
2021/04/25 07:03:48;;;;;;;13.77;12.70;;;18.30;99.90;;;;;;5072487;28;20025;-70
2021/04/25 07:06:16;;;;;;;14.73;13.38;;;18.30;99.90;;;;;;5072408;28;20046;-68
2021/04/25 07:08:46;;;;;;;13.48;12.48;;;18.30;99.90;;;;;;5071043;28;20025;-67
2021/04/25 07:11:13;;;;;;;11.90;11.10;;;18.20;99.90;;;;;;5072377;28;20036;-63
2021/04/25 07:13:41;;;;;;;13.30;12.20;;;18.20;99.90;;;;;;5072242;28;20027;-65
2021/04/25 07:16:08;;;;;;;13.27;12.25;;;18.10;99.90;;;;;;5072073;28;20472;-69
2021/04/25 07:18:36;;;;;;;12.77;11.82;;;18.10;99.90;;;;;;5072375;28;20496;-69
2021/04/25 07:21:03;;;;;;;13.32;12.20;;;18.00;99.90;;;;;;5072294;28;20047;-72
2021/04/25 07:23:30;;;;;;;13.23;12.20;;;18.00;99.90;;;;;;5073647;28;20566;-71
2021/04/25 07:25:58;;;;;;;13.25;12.30;;;17.90;99.90;;;;;;5075946;28;20042;-71
2021/04/25 07:28:26;;;;;;;15.18;13.98;;;17.80;99.90;;;;;;5076029;28;20024;-74
2021/04/25 07:30:54;;;;;;;13.43;12.73;;;17.80;99.90;;;;;;5075872;28;20025;-71
2021/04/25 07:33:22;;;;;;;14.40;13.27;;;17.80;99.90;;;;;;5075762;28;20027;-70
2021/04/25 07:35:49;;;;;;;13.52;12.30;;;17.70;99.90;;;;;;5075789;28;20029;-73
2021/04/25 07:38:16;;;;;;;12.35;11.45;;;17.60;99.90;;;;;;5075967;28;20021;-70
2021/04/25 07:40:44;;;;;;;12.10;11.48;;;17.60;99.90;;;;;;5075758;28;20048;-74
2021/04/25 07:43:12;;;;;;;14.85;13.85;;;17.50;99.90;;;;;;5058065;28;20027;-78
2021/04/25 07:45:39;;;;;;;13.90;13.10;;;17.40;99.90;;;;;;5074400;28;20119;-76
2021/04/25 07:48:10;;;;;;;14.02;13.02;;;17.40;99.90;;;;;;5074463;28;20384;-71
2021/04/25 07:50:41;;;;;;;14.70;13.50;;;17.30;99.90;;;;;;5075837;28;20545;-76
2021/04/25 07:53:08;;;;;;;14.60;13.60;;;17.20;99.90;;;;;;5074312;28;20393;-73
2021/04/25 07:55:35;;;;;;;15.23;14.15;;;17.10;99.90;;;;;;5075477;28;20082;-74
2021/04/25 07:58:03;;;;;;;15.85;14.63;;;17.10;99.90;;;;;;5075497;28;20495;-71
2021/04/25 08:00:30;;;;;;;16.25;14.80;;;17.00;99.90;;;;;;5074156;28;20051;-71
2021/04/25 08:02:57;;;;;;;17.38;16.13;;;16.80;99.90;;;;;;5075413;28;20035;-73
2021/04/25 08:05:25;;;;;;;19.33;18.02;;;16.80;99.90;;;;;;5074125;28;20115;-71
2021/04/25 08:07:52;;;;;;;21.20;19.80;;;16.70;99.90;;;;;;5075327;28;20036;-71
2021/04/25 08:10:20;;;;;;;22.73;21.27;;;16.70;99.90;;;;;;5075145;28;20020;-70
2021/04/25 08:12:47;;;;;;;25.33;23.60;;;16.60;99.90;;;;;;5075190;28;20071;-73
2021/04/25 08:15:14;;;;;;;26.60;24.80;;;16.60;99.90;;;;;;5075055;28;20388;-71
2021/04/25 08:17:42;;;;;;;25.15;23.23;;;16.50;99.90;;;;;;5075151;28;20020;-70
2021/04/25 08:20:13;;;;;;;25.38;23.90;;;16.40;99.90;;;;;;5075057;28;20072;-72
2021/04/25 08:22:39;;;;;;;;;;;16.30;99.90;;;;;;5075460;28;20012;-70
2021/04/25 08:25:07;;;;;;;27.00;25.38;;;16.30;99.90;;;;;;5074925;28;19905;-70
2021/04/25 08:27:35;;;;;;;26.10;24.67;;;16.20;99.90;;;;;;5074836;28;20025;-70
2021/04/25 08:30:04;;;;;;;28.92;26.98;;;16.20;99.90;;;;;;5074764;28;20016;-71
2021/04/25 08:32:31;;;;;;;28.38;26.60;;;16.10;99.90;;;;;;5074752;28;20023;-71
2021/04/25 08:34:59;;;;;;;31.08;29.38;;;16.10;99.90;;;;;;5073372;28;20485;-71
2021/04/25 08:37:26;;;;;;;31.95;30.17;;;16.00;99.90;;;;;;5074667;28;20058;-71
2021/04/25 08:39:53;;;;;;;34.75;32.85;;;16.10;99.90;;;;;;5074430;28;20041;-71
2021/04/25 08:42:21;;;;;;;35.40;33.25;;;16.00;99.90;;;;;;5073637;28;20465;-71
2021/04/25 08:44:49;;;;;;;38.15;35.90;;;16.00;99.90;;;;;;5074593;28;20416;-71
2021/04/25 08:47:17;;;;;;;36.80;35.08;;;16.00;99.90;;;;;;5073166;28;20016;-72
2021/04/25 08:49:45;;;;;;;41.65;39.08;;;15.90;99.90;;;;;;5073111;28;20174;-71
2021/04/25 08:52:12;;;;;;;40.55;38.55;;;15.90;99.90;;;;;;5074439;28;20023;-71
2021/04/25 08:54:41;;;;;;;42.30;40.00;;;15.80;99.90;;;;;;5074450;28;20017;-70
2021/04/25 08:57:08;;;;;;;41.75;39.75;;;15.80;99.90;;;;;;5072778;28;20025;-70
2021/04/25 08:59:36;;;;;;;44.05;41.70;;;15.70;99.90;;;;;;5074205;28;20025;-70
2021/04/25 09:02:03;;;;;;;45.33;42.80;;;15.70;99.90;;;;;;5074239;28;20025;-70
2021/04/25 09:04:30;;;;;;;44.53;42.08;;;15.70;99.90;;;;;;5072816;28;20027;-71
2021/04/25 09:07:00;;;;;;;44.10;41.70;;;15.60;99.90;;;;;;5073986;28;20028;-72
2021/04/25 09:09:43;;;;;;;44.20;41.70;;;15.60;99.90;;;;;;5074076;28;20024;-71
2021/04/25 09:12:12;;;;;;;45.70;43.10;;;15.50;99.90;;;;;;5073979;28;20025;-70
2021/04/25 09:14:41;;;;;;;47.92;45.30;;;15.50;99.90;;;;;;5073926;28;20036;-70
2021/04/25 09:17:08;;;;;;;48.00;45.38;;;15.40;99.90;;;;;;5073769;28;20477;-70
2021/04/25 09:19:58;;;;;;;51.13;48.00;;;15.40;99.90;;;;;;5073790;28;20056;-70
2021/04/25 09:22:44;;;;;;;51.08;47.90;;;15.40;99.90;;;;;;5073721;28;20028;-71
2021/04/25 09:25:15;;;;;;;54.88;51.58;;;15.40;99.90;;;;;;5072468;28;20413;-71
2021/04/25 09:27:46;;;;;;;55.08;51.70;;;15.30;99.90;;;;;;5072469;28;20163;-70
2021/04/25 09:30:24;;;;;;;55.40;52.40;;;15.40;99.90;;;;;;5073637;28;20025;-70
2021/04/25 09:33:11;;;;;;;54.53;51.38;;;15.40;99.90;;;;;;5073709;28;20500;-70
2021/04/25 09:35:39;;;;;;;54.35;51.20;;;15.30;99.90;;;;;;5073488;28;20059;-71
2021/04/25 09:38:12;;;;;;;54.10;51.10;;;15.30;99.90;;;;;;5073443;28;20100;-69
2021/04/25 09:40:51;;;;;;;54.00;50.80;;;15.30;99.90;;;;;;5073231;28;20087;-70
2021/04/25 09:43:20;;;;;;;52.33;49.13;;;15.20;99.90;;;;;;5072212;28;20075;-73
2021/04/25 09:45:50;;;;;;;52.08;48.97;;;15.20;99.90;;;;;;5073034;28;20044;-69
2021/04/25 09:48:22;;;;;;;51.80;48.72;;;15.20;99.90;;;;;;5073430;28;20096;-70
2021/04/25 09:51:22;;;;;;;53.35;49.95;;;15.20;99.90;;;;;;5073177;28;20024;-70
2021/04/25 09:53:55;;;;;;;50.17;47.13;;;15.20;99.90;;;;;;5073390;28;20605;-73
2021/04/25 09:56:24;;;;;;;50.20;46.95;;;15.20;99.90;;;;;;5073561;28;20033;-73
2021/04/25 09:59:10;;;;;;;51.65;48.30;;;15.20;99.90;;;;;;5073148;28;20074;-71
2021/04/25 10:01:43;;;;;;;53.60;50.40;;;15.10;99.90;;;;;;5073088;28;20477;-73
2021/04/25 10:04:29;;;;;;;53.90;50.70;;;15.10;99.90;;;;;;5072993;28;20021;-71
2021/04/25 10:06:59;;;;;;;54.53;51.42;;;15.00;99.90;;;;;;5071805;28;20094;-69
2021/04/25 10:09:28;;;;;;;59.30;56.17;;;15.00;99.90;;;;;;5072977;28;20074;-73
2021/04/25 10:11:58;;;;;;;56.85;53.58;;;14.90;99.90;;;;;;5072903;28;20025;-74
2021/04/25 10:14:28;;;;;;;56.53;53.23;;;14.90;99.90;;;;;;5071905;28;20029;-75
2021/04/25 10:16:56;;;;;;;56.63;53.25;;;14.90;99.90;;;;;;5071531;28;20285;-74
2021/04/25 10:19:24;;;;;;;59.72;55.95;;;14.90;99.90;;;;;;5071693;28;20455;-74
2021/04/25 10:21:52;;;;;;;59.75;56.30;;;14.80;99.90;;;;;;5073155;28;20016;-74
2021/04/25 10:24:21;;;;;;;59.78;56.17;;;14.80;99.90;;;;;;5071520;28;20031;-74
2021/04/25 10:27:02;;;;;;;60.03;56.50;;;14.80;99.90;;;;;;5071584;28;20021;-75
2021/04/25 10:29:57;;;;;;;61.25;57.53;;;14.80;99.90;;;;;;5073034;28;20047;-75
2021/04/25 10:32:24;;;;;;;61.30;57.60;;;14.80;99.90;;;;;;5067165;28;20040;-72
2021/04/25 10:35:16;;;;;;;59.47;56.03;;;14.80;99.90;;;;;;5072711;28;20024;-73
2021/04/25 10:37:44;;;;;;;63.80;60.03;;;14.80;99.90;;;;;;5072821;28;20512;-74
2021/04/25 10:40:27;;;;;;;61.00;57.60;;;14.70;99.90;;;;;;5071116;28;20543;-71
2021/04/25 10:43:05;;;;;;;61.17;57.67;;;14.70;99.90;;;;;;5072779;28;20025;-71
2021/04/25 10:45:35;;;;;;;59.00;55.53;;;14.70;99.90;;;;;;5071347;28;20033;-70
2021/04/25 10:48:21;;;;;;;60.40;56.80;;;14.60;99.90;;;;;;5071347;28;20485;-72
2021/04/25 10:50:52;;;;;;;61.75;58.17;;;14.50;99.90;;;;;;5072635;28;20030;-72
2021/04/25 10:53:28;;;;;;;64.38;60.65;;;14.50;99.90;;;;;;5071189;28;20382;-70
2021/04/25 10:56:31;;;;;;;60.50;56.92;;;14.50;99.90;;;;;;5071159;28;20090;-73
2021/04/25 10:59:34;;;;;;;58.13;54.83;;;14.40;99.90;;;;;;4996407;28;20553;-72
2021/04/25 11:02:03;;;;;;;60.08;56.78;;;14.30;99.90;;;;;;5014735;28;20025;-72
2021/04/25 11:04:55;;;;;;;62.17;58.67;;;14.30;99.90;;;;;;5065898;28;20064;-73
2021/04/25 11:07:40;;;;;;;62.53;58.95;;;14.30;99.90;;;;;;5076453;28;20028;-72
2021/04/25 11:10:08;;;;;;;66.63;62.63;;;14.30;99.90;;;;;;5076479;28;20027;-74
2021/04/25 11:12:40;;;;;;;70.45;66.15;;;14.30;99.90;;;;;;5075048;28;20021;-73
2021/04/25 11:15:08;;;;;;;67.80;63.33;;;14.30;99.90;;;;;;5076283;28;20020;-74
2021/04/25 11:17:35;;;;;;;67.93;63.72;;;14.30;99.90;;;;;;5076332;28;20027;-76
2021/04/25 11:20:32;;;;;;;67.38;63.42;;;14.20;99.90;;;;;;5076287;28;20028;-73
2021/04/25 11:23:00;;;;;;;67.57;63.65;;;14.20;99.90;;;;;;5074927;28;20473;-73
2021/04/25 11:25:32;;;;;;;68.88;64.70;;;14.20;99.90;;;;;;5074859;28;20030;-73
2021/04/25 11:28:00;;;;;;;66.93;62.83;;;14.20;99.90;;;;;;5076065;28;20031;-74
2021/04/25 11:30:43;;;;;;;64.88;60.83;;;14.20;99.90;;;;;;5075931;28;20495;-74
2021/04/25 11:33:33;;;;;;;64.63;60.63;;;14.10;99.90;;;;;;5076005;28;20107;-73
2021/04/25 11:36:36;;;;;;;59.92;56.20;;;14.00;99.90;;;;;;5075839;28;20028;-73
2021/04/25 11:39:05;;;;;;;61.97;57.92;;;14.00;99.90;;;;;;5043630;28;20048;-73
2021/04/25 11:41:33;;;;;;;62.38;58.25;;;14.00;99.90;;;;;;5075813;28;20039;-76
2021/04/25 11:44:01;;;;;;;61.10;57.55;;;13.90;99.90;;;;;;5075699;28;20021;-74
2021/04/25 11:46:33;;;;;;;62.97;59.30;;;13.90;99.90;;;;;;5074455;28;20144;-73
2021/04/25 11:49:03;;;;;;;63.08;59.42;;;13.90;99.90;;;;;;5074300;28;20480;-74
2021/04/25 11:51:31;;;;;;;65.75;61.75;;;13.90;99.90;;;;;;5075522;28;20020;-74
2021/04/25 11:53:59;;;;;;;68.03;64.10;;;13.90;99.90;;;;;;5074409;28;20400;-74
2021/04/25 11:56:29;;;;;;;68.50;64.47;;;13.90;99.90;;;;;;5075417;28;20060;-74
2021/04/25 11:59:06;;;;;;;;;;;13.90;99.90;;;;;;5074718;28;20160;-74
2021/04/25 12:01:34;;;;;;;64.28;60.70;;;13.90;99.90;;;;;;5075451;28;19936;-74
2021/04/25 12:04:01;;;;;;;63.95;60.05;;;13.90;99.90;;;;;;5075345;28;20028;-74
2021/04/25 12:06:44;;;;;;;64.95;61.05;;;13.90;99.90;;;;;;5075307;28;20021;-74
2021/04/25 12:09:11;;;;;;;67.47;63.58;;;13.90;99.90;;;;;;5074966;28;20386;-73
2021/04/25 12:11:38;;;;;;;68.80;64.72;;;13.90;99.90;;;;;;5075212;28;20050;-74
2021/04/25 12:14:20;;;;;;;69.40;65.40;;;13.90;99.90;;;;;;5075206;28;20504;-73
2021/04/25 12:16:48;;;;;;;66.95;63.25;;;13.90;99.90;;;;;;5073845;28;20035;-72
2021/04/25 12:19:23;;;;;;;63.75;59.80;;;13.80;99.90;;;;;;5075053;28;20024;-73
2021/04/25 12:21:52;;;;;;;64.03;60.05;;;13.80;99.90;;;;;;5074963;28;20025;-72
2021/04/25 12:24:22;;;;;;;65.68;61.88;;;13.80;99.90;;;;;;5074942;28;20507;-73
2021/04/25 12:26:50;;;;;;;64.13;59.67;;;13.70;99.90;;;;;;5073685;28;20029;-73
2021/04/25 12:29:36;;;;;;;65.80;61.47;;;13.70;99.90;;;;;;5074913;28;20028;-72
2021/04/25 12:32:04;;;;;;;68.82;64.97;;;13.70;99.90;;;;;;5073566;28;20024;-73
2021/04/25 12:34:32;;;;;;;70.75;66.35;;;13.70;99.90;;;;;;5074790;28;20548;-72
2021/04/25 12:37:01;;;;;;;67.32;62.83;;;13.80;99.90;;;;;;5074640;28;20515;-72
2021/04/25 12:39:42;;;;;;;69.50;65.40;;;13.80;99.90;;;;;;5074491;28;20127;-72
2021/04/25 12:42:22;;;;;;;67.82;63.83;;;13.90;99.90;;;;;;5074564;28;20100;-73
2021/04/25 12:44:49;;;;;;;67.68;63.67;;;13.90;99.90;;;;;;5074643;28;20029;-73
2021/04/25 12:47:29;;;;;;;66.25;62.40;;;14.00;99.90;;;;;;5073225;28;20034;-71
2021/04/25 12:49:56;;;;;;;67.20;63.08;;;14.10;99.90;;;;;;5073199;28;20032;-72